createdAt,value
2019-03-25T00:01:21.575Z,101103.92
2019-03-25T00:03:53.106Z,101098.50
2019-03-25T00:06:24.527Z,101097.48
2019-03-25T00:09:05.028Z,101103.41
2019-03-25T00:11:30.944Z,101103.08
2019-03-25T00:14:04.475Z,101099.74
2019-03-25T00:16:37.436Z,101104.41
2019-03-25T00:19:10.924Z,101104.23
2019-03-25T00:21:42.335Z,101101.25
2019-03-25T00:24:13.617Z,101106.95
2019-03-25T00:26:44.857Z,101099.73
2019-03-25T00:29:16.132Z,101093.41
2019-03-25T00:31:47.393Z,101086.97
2019-03-25T00:34:18.790Z,101092.16
2019-03-25T00:36:50.026Z,101091.92
2019-03-25T00:39:21.371Z,101091.27
2019-03-25T00:41:52.757Z,101085.89
2019-03-25T00:44:24.108Z,101081.13
2019-03-25T00:46:55.408Z,101080.34
2019-03-25T00:49:26.683Z,101078.02
2019-03-25T00:51:58.067Z,101081.88
2019-03-25T00:54:29.343Z,101077.94
2019-03-25T00:57:00.647Z,101078.96
2019-03-25T00:59:33.052Z,101078.19
2019-03-25T01:02:04.419Z,101088.30
2019-03-25T01:04:35.685Z,101077.17
2019-03-25T01:07:06.984Z,101083.12
2019-03-25T01:09:38.256Z,101078.77
2019-03-25T01:12:09.482Z,101072.70
2019-03-25T01:14:40.774Z,101073.47
2019-03-25T01:17:12.030Z,101078.23
2019-03-25T01:19:43.418Z,101072.19
2019-03-25T01:22:14.708Z,101081.66
2019-03-25T01:24:46.054Z,101077.59
2019-03-25T01:27:17.423Z,101081.88
2019-03-25T01:29:48.702Z,101084.50
2019-03-25T01:32:19.927Z,101084.31
2019-03-25T01:34:51.208Z,101084.73
2019-03-25T01:37:22.435Z,101085.94
2019-03-25T01:39:53.707Z,101080.10
2019-03-25T01:42:25.012Z,101087.22
2019-03-25T01:44:56.293Z,101082.25
2019-03-25T01:47:27.527Z,101081.79
2019-03-25T01:49:58.804Z,101073.94
2019-03-25T01:52:30.041Z,101070.29
2019-03-25T01:55:12.699Z,101068.84
2019-03-25T01:57:34.341Z,101068.37
2019-03-25T02:00:09.104Z,101064.64
2019-03-25T02:02:40.341Z,101062.45
2019-03-25T02:05:11.793Z,101065.82
2019-03-25T02:07:43.244Z,101062.23
2019-03-25T02:10:14.846Z,101060.80
2019-03-25T02:12:46.226Z,101057.42
2019-03-25T02:15:17.615Z,101053.49
2019-03-25T02:17:48.896Z,101055.55
2019-03-25T02:20:26.345Z,101048.70
2019-03-25T02:22:53.366Z,101050.84
2019-03-25T02:25:25.818Z,101047.73
2019-03-25T02:27:57.298Z,101054.82
2019-03-25T02:30:28.655Z,101056.67
2019-03-25T02:32:59.886Z,101056.17
2019-03-25T02:35:31.304Z,101056.78
2019-03-25T02:38:02.541Z,101047.28
2019-03-25T02:40:33.836Z,101047.14
2019-03-25T02:43:05.689Z,101039.98
2019-03-25T02:45:36.996Z,101039.08
2019-03-25T02:48:08.296Z,101039.06
2019-03-25T02:50:39.650Z,101047.24
2019-03-25T02:53:10.879Z,101047.70
2019-03-25T02:55:42.662Z,101038.41
2019-03-25T02:58:14.346Z,101037.29
2019-03-25T03:00:47.147Z,101038.78
2019-03-25T03:03:18.389Z,101037.41
2019-03-25T03:05:49.683Z,101031.70
2019-03-25T03:08:26.640Z,101032.29
2019-03-25T03:10:57.987Z,101032.55
2019-03-25T03:13:29.282Z,101028.63
2019-03-25T03:16:17.198Z,101021.69
2019-03-25T03:18:48.668Z,101028.78
2019-03-25T03:21:19.965Z,101027.55
2019-03-25T03:23:51.380Z,101025.09
2019-03-25T03:26:22.789Z,101026.39
2019-03-25T03:28:54.085Z,101021.58
2019-03-25T03:31:25.507Z,101018.89
2019-03-25T03:33:58.037Z,101016.77
2019-03-25T03:36:29.358Z,101019.30
2019-03-25T03:39:00.596Z,101012.77
2019-03-25T03:41:41.942Z,101011.46
2019-03-25T03:44:13.509Z,101010.08
2019-03-25T03:46:45.031Z,101004.63
2019-03-25T03:49:16.259Z,101005.05
2019-03-25T03:51:47.785Z,100997.06
2019-03-25T03:54:19.464Z,100991.02
2019-03-25T03:56:52.270Z,100995.83
2019-03-25T03:59:24.236Z,100993.70
2019-03-25T04:01:56.384Z,100996.72
2019-03-25T04:04:33.356Z,100995.00
2019-03-25T04:07:04.703Z,100999.14
2019-03-25T04:09:36.074Z,100995.78
2019-03-25T04:12:07.791Z,100997.72
2019-03-25T04:14:39.355Z,100986.78
2019-03-25T04:17:10.702Z,100985.14
2019-03-25T04:19:42.067Z,100989.13
2019-03-25T04:22:13.358Z,100988.09
2019-03-25T04:24:44.755Z,100994.77
2019-03-25T04:27:16.095Z,100985.84
2019-03-25T04:29:47.414Z,100982.74
2019-03-25T04:32:18.817Z,100987.51
2019-03-25T04:34:50.554Z,100990.70
2019-03-25T04:37:21.827Z,100990.84
2019-03-25T04:39:53.053Z,100983.62
2019-03-25T04:42:24.402Z,100977.08
2019-03-25T04:44:55.626Z,100973.09
2019-03-25T04:47:26.932Z,100972.61
2019-03-25T04:49:58.141Z,100974.53
2019-03-25T04:52:29.415Z,100973.76
2019-03-25T04:55:00.767Z,100989.71
2019-03-25T04:57:32.826Z,100985.72
2019-03-25T05:00:04.976Z,100989.16
2019-03-25T05:02:36.451Z,100984.89
2019-03-25T05:05:10.529Z,100977.61
2019-03-25T05:07:42.009Z,100984.55
2019-03-25T05:10:13.611Z,100978.02
2019-03-25T05:12:44.952Z,100978.77
2019-03-25T05:15:16.269Z,100985.38
2019-03-25T05:17:47.556Z,100977.20
2019-03-25T05:20:18.859Z,100977.68
2019-03-25T05:22:50.207Z,100975.63
2019-03-25T05:25:21.618Z,100976.59
2019-03-25T05:27:52.907Z,100970.13
2019-03-25T05:30:24.140Z,100972.95
2019-03-25T05:32:55.896Z,100971.23
2019-03-25T05:35:27.420Z,100972.67
2019-03-25T05:37:58.657Z,100963.39
2019-03-25T05:40:33.292Z,100959.73
2019-03-25T05:43:04.733Z,100958.84
2019-03-25T05:45:36.153Z,100958.57
2019-03-25T05:48:07.378Z,100956.16
2019-03-25T05:50:38.720Z,100950.12
2019-03-25T05:53:09.995Z,100950.46
2019-03-25T05:55:42.363Z,100945.09
2019-03-25T05:58:13.756Z,100950.39
2019-03-25T06:00:46.055Z,100948.00
2019-03-25T06:03:17.410Z,100953.96
2019-03-25T06:05:48.882Z,100954.07
2019-03-25T06:08:20.231Z,100962.28
2019-03-25T06:10:51.463Z,100957.91
2019-03-25T06:13:22.829Z,100951.93
2019-03-25T06:15:54.064Z,100951.72
2019-03-25T06:18:25.347Z,100945.19
2019-03-25T06:20:56.581Z,100949.06
2019-03-25T06:23:28.124Z,100941.46
2019-03-25T06:25:59.361Z,100946.47
2019-03-25T06:28:30.983Z,100951.53
2019-03-25T06:31:02.497Z,100952.30
2019-03-25T06:33:34.053Z,100950.69
2019-03-25T06:36:05.502Z,100942.92
2019-03-25T06:38:36.786Z,100947.87
2019-03-25T06:41:08.087Z,100947.09
2019-03-25T06:43:39.437Z,100947.20
2019-03-25T06:46:11.055Z,100941.91
2019-03-25T06:48:42.346Z,100942.84
2019-03-25T06:51:13.906Z,100946.54
2019-03-25T06:53:45.397Z,100934.84
2019-03-25T06:56:16.949Z,100942.47
2019-03-25T06:58:48.306Z,100932.13
2019-03-25T07:01:20.011Z,100932.25
2019-03-25T07:03:51.716Z,100942.44
2019-03-25T07:06:23.165Z,100933.30
2019-03-25T07:08:54.497Z,100944.22
2019-03-25T07:11:26.208Z,100945.11
2019-03-25T07:13:59.172Z,100954.14
2019-03-25T07:16:30.709Z,100963.91
2019-03-25T07:19:02.088Z,100961.50
2019-03-25T07:21:33.400Z,100961.25
2019-03-25T07:24:06.522Z,100960.99
2019-03-25T07:26:37.901Z,100952.44
2019-03-25T07:29:09.234Z,100953.96
2019-03-25T07:31:40.714Z,100960.74
2019-03-25T07:34:12.177Z,100943.34
2019-03-25T07:36:43.534Z,100954.96
2019-03-25T07:39:14.985Z,100960.89
2019-03-25T07:41:46.356Z,100952.27
2019-03-25T07:44:17.764Z,100954.03
2019-03-25T07:46:48.986Z,100943.70
2019-03-25T07:49:20.337Z,100947.05
2019-03-25T07:51:52.044Z,100950.02
2019-03-25T07:54:23.398Z,100948.56
2019-03-25T07:56:54.804Z,100965.05
2019-03-25T07:59:26.293Z,100967.87
2019-03-25T08:01:57.797Z,100968.01
2019-03-25T08:04:29.124Z,100989.75
2019-03-25T08:07:01.586Z,100983.55
2019-03-25T08:09:34.178Z,100977.41
2019-03-25T08:12:05.522Z,100970.92
2019-03-25T08:14:37.905Z,100957.57
2019-03-25T08:17:10.427Z,100986.94
2019-03-25T08:19:41.838Z,100973.11
2019-03-25T08:22:13.064Z,100978.19
2019-03-25T08:24:44.610Z,100980.78
2019-03-25T08:27:15.915Z,100979.33
2019-03-25T08:29:47.336Z,100981.71
2019-03-25T08:32:18.589Z,100988.70
2019-03-25T08:34:49.881Z,100979.66
2019-03-25T08:37:21.295Z,100981.92
2019-03-25T08:39:52.571Z,100995.41
2019-03-25T08:42:23.932Z,100987.23
2019-03-25T08:44:55.242Z,100984.25
2019-03-25T08:47:26.522Z,100986.73
2019-03-25T08:49:57.970Z,100995.16
2019-03-25T08:52:29.198Z,100995.42
2019-03-25T08:55:00.609Z,100999.50
2019-03-25T08:57:31.992Z,100995.88
2019-03-25T09:00:04.438Z,101007.77
2019-03-25T09:02:35.878Z,101011.69
2019-03-25T09:05:08.947Z,101029.12
2019-03-25T09:07:40.310Z,101020.24
2019-03-25T09:10:12.263Z,101034.61
2019-03-25T09:12:43.555Z,101013.95
2019-03-25T09:15:15.378Z,101015.70
2019-03-25T09:17:46.763Z,101005.70
2019-03-25T09:20:18.210Z,100999.30
2019-03-25T09:22:49.509Z,101006.02
2019-03-25T09:25:20.928Z,100998.45
2019-03-25T09:27:52.342Z,101005.00
2019-03-25T09:30:54.023Z,101007.67
2019-03-25T09:33:25.533Z,100998.40
2019-03-25T09:35:56.963Z,101002.54
2019-03-25T09:38:28.252Z,101006.00
2019-03-25T09:40:59.670Z,101016.41
2019-03-25T09:43:30.966Z,101015.73
2019-03-25T09:46:02.373Z,101016.23
2019-03-25T09:48:33.629Z,101029.11
2019-03-25T09:51:05.111Z,101013.82
2019-03-25T09:53:36.411Z,101020.86
2019-03-25T09:56:07.913Z,101022.18
2019-03-25T09:58:39.234Z,101012.70
2019-03-25T10:01:13.420Z,101013.86
2019-03-25T10:03:45.893Z,101015.17
2019-03-25T10:06:17.283Z,101007.27
2019-03-25T10:08:48.774Z,101002.81
2019-03-25T10:11:20.327Z,101011.23
2019-03-25T10:13:51.631Z,101006.17
2019-03-25T10:16:23.110Z,101002.78
2019-03-25T10:18:54.344Z,101009.84
2019-03-25T10:21:25.619Z,101006.84
2019-03-25T10:23:56.944Z,100994.69
2019-03-25T10:26:28.363Z,101008.05
2019-03-25T10:28:59.587Z,100998.96
2019-03-25T10:31:30.861Z,101002.47
2019-03-25T10:34:02.117Z,100986.77
2019-03-25T10:36:33.466Z,100986.92
2019-03-25T10:39:06.758Z,100990.08
2019-03-25T10:41:38.535Z,100990.38
2019-03-25T10:44:11.000Z,100972.92
2019-03-25T10:46:42.542Z,100961.05
2019-03-25T10:49:16.132Z,100950.14
2019-03-25T10:51:47.265Z,100964.41
2019-03-25T10:54:18.715Z,100963.39
2019-03-25T10:56:50.140Z,100969.13
2019-03-25T10:59:21.528Z,100957.95
2019-03-25T11:01:53.169Z,100965.81
2019-03-25T11:04:24.529Z,100967.47
2019-03-25T11:06:55.877Z,100962.13
2019-03-25T11:09:27.098Z,100952.18
2019-03-25T11:11:58.471Z,100955.62
2019-03-25T11:14:29.774Z,100956.45
2019-03-25T11:17:01.133Z,100954.03
2019-03-25T11:19:32.589Z,100965.58
2019-03-25T11:22:04.009Z,100952.28
2019-03-25T11:24:35.423Z,100950.60
2019-03-25T11:27:08.097Z,100948.59
2019-03-25T11:29:39.356Z,100948.13
2019-03-25T11:32:10.667Z,100951.31
2019-03-25T11:34:41.981Z,100943.91
2019-03-25T11:37:13.340Z,100948.47
2019-03-25T11:39:44.650Z,100944.08
2019-03-25T11:42:15.948Z,100940.30
2019-03-25T11:44:48.322Z,100940.72
2019-03-25T11:47:19.729Z,100941.92
2019-03-25T11:49:50.975Z,100943.66
2019-03-25T11:52:22.324Z,100945.23
2019-03-25T11:54:53.612Z,100929.92
2019-03-25T11:57:25.067Z,100948.67
2019-03-25T11:59:56.518Z,100918.17
2019-03-25T12:02:27.881Z,100929.61
2019-03-25T12:05:01.642Z,100917.77
2019-03-25T12:07:33.130Z,100914.41
2019-03-25T12:10:06.971Z,100913.57
2019-03-25T12:12:38.298Z,100910.13
2019-03-25T12:15:10.441Z,100925.00
2019-03-25T12:17:41.908Z,100890.56
2019-03-25T12:20:13.383Z,100891.72
2019-03-25T12:22:44.668Z,100902.10
2019-03-25T12:25:16.077Z,100907.94
2019-03-25T12:27:47.428Z,100891.76
2019-03-25T12:30:19.177Z,100903.81
2019-03-25T12:32:50.566Z,100906.17
2019-03-25T12:35:21.873Z,100941.08
2019-03-25T12:37:53.173Z,100930.03
2019-03-25T12:40:24.498Z,100943.45
2019-03-25T12:42:55.858Z,100970.78
2019-03-25T12:45:28.434Z,100999.59
2019-03-25T12:48:00.105Z,100996.11
2019-03-25T12:50:34.076Z,101023.31
2019-03-25T12:53:05.528Z,101016.33
2019-03-25T12:55:36.896Z,101007.63
2019-03-25T12:58:08.332Z,101003.31
2019-03-25T13:00:41.943Z,100984.41
2019-03-25T13:03:14.366Z,100969.48
2019-03-25T13:05:46.526Z,100970.88
2019-03-25T13:08:17.813Z,100966.28
2019-03-25T13:10:49.598Z,100961.23
2019-03-25T13:13:20.978Z,100954.84
2019-03-25T13:15:53.527Z,100955.75
2019-03-25T13:18:24.774Z,100954.11
2019-03-25T13:20:56.153Z,100960.72
2019-03-25T13:23:27.510Z,100945.98
2019-03-25T13:25:58.825Z,100957.80
2019-03-25T13:28:30.180Z,100970.22
2019-03-25T13:31:01.425Z,100964.84
2019-03-25T13:33:32.895Z,100972.52
2019-03-25T13:36:04.772Z,100984.05
2019-03-25T13:38:37.673Z,100991.11
2019-03-25T13:41:09.049Z,100987.27
2019-03-25T13:43:40.337Z,100987.91
2019-03-25T13:46:11.665Z,100982.77
2019-03-25T13:48:43.032Z,100988.75
2019-03-25T13:51:14.294Z,100978.14
2019-03-25T13:53:45.659Z,100986.61
2019-03-25T13:56:16.965Z,100992.50
2019-03-25T13:58:48.330Z,100976.56
2019-03-25T14:01:19.642Z,100993.94
2019-03-25T14:03:54.119Z,100981.30
2019-03-25T14:06:25.457Z,100989.25
2019-03-25T14:08:56.823Z,100990.09
2019-03-25T14:11:28.335Z,101005.92
2019-03-25T14:14:00.322Z,100996.08
2019-03-25T14:16:31.980Z,101014.42
2019-03-25T14:19:05.481Z,101009.33
2019-03-25T14:21:43.719Z,101010.51
2019-03-25T14:24:27.410Z,101011.58
2019-03-25T14:26:52.395Z,101008.31
2019-03-25T14:29:24.343Z,101001.08
2019-03-25T14:31:55.583Z,101001.76
2019-03-25T14:34:27.291Z,100999.02
2019-03-25T14:36:58.632Z,101013.23
2019-03-25T14:39:29.924Z,101008.03
2019-03-25T14:42:01.169Z,101023.39
2019-03-25T14:44:36.254Z,101021.45
2019-03-25T14:47:07.844Z,101007.17
2019-03-25T14:49:39.189Z,101004.53
2019-03-25T14:52:10.573Z,101019.86
2019-03-25T14:54:41.860Z,101022.96
2019-03-25T14:57:13.134Z,101022.83
2019-03-25T14:59:46.668Z,101031.20
2019-03-25T15:02:18.104Z,101029.38
2019-03-25T15:04:49.344Z,101027.11
2019-03-25T15:07:24.782Z,101037.49
2019-03-25T15:09:56.204Z,101029.55
2019-03-25T15:12:29.026Z,101033.68
2019-03-25T15:15:00.413Z,101030.94
2019-03-25T15:17:35.061Z,101033.59
2019-03-25T15:20:10.829Z,101025.64
2019-03-25T15:22:42.268Z,101034.75
2019-03-25T15:25:15.927Z,101030.80
2019-03-25T15:27:47.490Z,101031.58
2019-03-25T15:30:20.053Z,101037.19
2019-03-25T15:32:52.508Z,101030.63
2019-03-25T15:35:24.125Z,101034.77
2019-03-25T15:37:59.992Z,101030.23
2019-03-25T15:40:31.517Z,101027.20
2019-03-25T15:43:03.963Z,101040.94
2019-03-25T15:45:35.583Z,101048.38
2019-03-25T15:48:07.282Z,101044.03
2019-03-25T15:50:38.733Z,101050.09
2019-03-25T15:53:11.932Z,101045.50
2019-03-25T15:55:43.293Z,101050.66
2019-03-25T15:58:25.333Z,101039.27
2019-03-25T16:00:48.762Z,101044.20
2019-03-25T16:03:20.103Z,101031.70
2019-03-25T16:05:51.569Z,101037.25
2019-03-25T16:08:39.039Z,101040.84
2019-03-25T16:11:18.725Z,101035.80
2019-03-25T16:13:52.123Z,101035.28
2019-03-25T16:16:23.539Z,101038.06
2019-03-25T16:18:56.526Z,101044.11
2019-03-25T16:21:29.214Z,101047.28
2019-03-25T16:24:00.680Z,101054.37
2019-03-25T16:26:31.998Z,101057.52
2019-03-25T16:29:06.570Z,101062.34
2019-03-25T16:31:37.851Z,101065.44
2019-03-25T16:34:11.116Z,101068.64
2019-03-25T16:36:42.398Z,101064.97
2019-03-25T16:39:13.874Z,101071.13
2019-03-25T16:41:46.068Z,101067.56
2019-03-25T16:44:17.401Z,101067.13
2019-03-25T16:46:48.772Z,101068.28
2019-03-25T16:49:20.116Z,101070.85
2019-03-25T16:51:52.434Z,101066.89
2019-03-25T16:55:10.372Z,101073.20
2019-03-25T16:58:13.036Z,101079.48
2019-03-25T17:00:45.556Z,101083.93
2019-03-25T17:03:17.146Z,101090.58
2019-03-25T17:05:56.976Z,101103.93
2019-03-25T17:08:40.629Z,101098.92
2019-03-25T17:11:15.678Z,101103.61
2019-03-25T17:13:49.431Z,101103.75
2019-03-25T17:16:23.387Z,101114.73
2019-03-25T17:18:54.668Z,101123.28
2019-03-25T17:21:27.447Z,101135.65
2019-03-25T17:23:58.791Z,101127.05
2019-03-25T17:26:41.805Z,101128.11
2019-03-25T17:29:04.369Z,101143.38
2019-03-25T17:31:36.799Z,101143.94
2019-03-25T17:34:08.168Z,101153.53
2019-03-25T17:36:39.692Z,101133.44
2019-03-25T17:39:11.129Z,101138.41
2019-03-25T17:41:42.568Z,101146.48
2019-03-25T17:44:14.839Z,101166.27
2019-03-25T17:46:46.770Z,101169.27
2019-03-25T17:49:22.846Z,101184.16
2019-03-25T17:51:54.320Z,101206.69
2019-03-25T17:54:25.800Z,101236.58
2019-03-25T17:58:09.209Z,101257.20
2019-03-25T18:01:01.587Z,101259.58
2019-03-25T18:10:33.870Z,101214.48
2019-03-25T18:13:05.567Z,101211.58
2019-03-25T18:15:37.043Z,101219.80
2019-03-25T18:18:08.560Z,101209.86
2019-03-25T18:20:39.897Z,101223.32
2019-03-25T18:23:11.392Z,101228.15
2019-03-25T18:28:43.531Z,101235.87
2019-03-25T18:31:15.819Z,101248.73
2019-03-25T18:33:47.353Z,101246.92
2019-03-25T18:36:31.509Z,101254.09
2019-03-25T18:39:07.804Z,101250.35
2019-03-25T18:41:39.472Z,101235.86
2019-03-25T18:44:10.922Z,101239.25
2019-03-25T18:46:45.582Z,101256.78
2019-03-25T18:49:17.169Z,101250.92
2019-03-25T18:51:48.447Z,101250.51
2019-03-25T18:54:19.816Z,101256.23
2019-03-25T18:56:51.259Z,101258.31
2019-03-25T18:59:24.305Z,101256.45
2019-03-25T19:01:55.670Z,101263.84
2019-03-25T19:04:29.936Z,101269.02
2019-03-25T19:07:01.420Z,101268.32
2019-03-25T19:09:33.077Z,101267.22
2019-03-25T19:12:05.456Z,101262.02
2019-03-25T19:14:43.716Z,101273.20
2019-03-25T19:17:20.861Z,101269.14
2019-03-25T19:19:54.016Z,101283.49
2019-03-25T19:22:25.405Z,101281.70
2019-03-25T19:24:57.101Z,101283.49
2019-03-25T19:27:28.392Z,101283.91
2019-03-25T19:29:59.819Z,101284.25
2019-03-25T19:32:31.404Z,101287.56
2019-03-25T19:35:03.747Z,101293.22
2019-03-25T19:37:35.192Z,101293.63
2019-03-25T19:40:09.735Z,101297.16
2019-03-25T19:42:41.138Z,101299.84
2019-03-25T19:45:14.949Z,101296.73
2019-03-25T19:47:46.894Z,101300.19
2019-03-25T19:50:19.841Z,101298.67
2019-03-25T19:52:51.266Z,101305.50
2019-03-25T19:55:22.730Z,101307.22
2019-03-25T19:57:54.135Z,101312.25
2019-03-25T20:00:37.909Z,101313.01
2019-03-25T20:03:09.222Z,101312.53
2019-03-25T20:05:40.898Z,101319.42
2019-03-25T20:08:12.280Z,101323.84
2019-03-25T20:10:43.790Z,101326.94
2019-03-25T20:13:15.118Z,101335.70
2019-03-25T20:15:47.004Z,101343.56
2019-03-25T20:18:18.591Z,101346.19
2019-03-25T20:20:50.135Z,101352.81
2019-03-25T20:23:21.705Z,101358.95
2019-03-25T20:25:53.283Z,101364.12
2019-03-25T20:28:24.670Z,101364.12
2019-03-25T20:30:56.233Z,101365.50
2019-03-25T20:33:28.130Z,101365.57
2019-03-25T20:35:59.575Z,101366.20
2019-03-25T20:38:34.037Z,101364.95
2019-03-25T20:41:07.028Z,101369.72
2019-03-25T20:43:38.413Z,101371.99
2019-03-25T20:46:09.883Z,101376.75
2019-03-25T20:48:42.834Z,101382.41
2019-03-25T20:51:14.391Z,101385.52
2019-03-25T20:53:45.731Z,101388.06
2019-03-25T20:56:17.584Z,101382.67
2019-03-25T20:58:49.936Z,101387.84
2019-03-25T21:01:21.648Z,101390.47
2019-03-25T21:03:53.130Z,101399.23
2019-03-25T21:06:24.453Z,101404.41
2019-03-25T21:08:55.947Z,101407.77
2019-03-25T21:11:27.474Z,101408.52
2019-03-25T21:14:01.045Z,101416.31
2019-03-25T21:16:32.590Z,101416.24
2019-03-25T21:19:03.864Z,101415.61
2019-03-25T21:21:35.405Z,101423.40
2019-03-25T21:24:06.860Z,101428.64
2019-03-25T21:26:38.307Z,101431.89
2019-03-25T21:29:09.710Z,101431.36
2019-03-25T21:31:42.287Z,101428.77
2019-03-25T21:34:13.969Z,101440.92
2019-03-25T21:36:45.493Z,101435.89
2019-03-25T21:39:16.847Z,101436.04
2019-03-25T21:41:48.674Z,101442.40
2019-03-25T21:44:20.099Z,101442.12
2019-03-25T21:46:51.398Z,101455.48
2019-03-25T21:49:22.758Z,101456.05
2019-03-25T21:51:54.185Z,101457.16
2019-03-25T21:54:25.642Z,101458.20
2019-03-25T21:56:57.201Z,101468.48
2019-03-25T21:59:29.611Z,101462.41
2019-03-25T22:02:01.146Z,101462.00
2019-03-25T22:04:32.599Z,101470.28
2019-03-25T22:07:04.042Z,101473.25
2019-03-25T22:09:35.329Z,101477.04
2019-03-25T22:12:06.777Z,101486.08
2019-03-25T22:14:38.297Z,101484.77
2019-03-25T22:17:09.802Z,101485.94
2019-03-25T22:19:42.864Z,101481.78
2019-03-25T22:22:15.933Z,101493.33
2019-03-25T22:24:47.350Z,101487.46
2019-03-25T22:27:19.775Z,101492.48
2019-03-25T22:29:53.410Z,101493.23
2019-03-25T22:32:24.796Z,101503.16
2019-03-25T22:34:56.078Z,101504.81
2019-03-25T22:37:27.600Z,101499.42
2019-03-25T22:39:59.353Z,101497.14
2019-03-25T22:42:31.654Z,101501.00
2019-03-25T22:45:02.938Z,101506.24
2019-03-25T22:47:35.046Z,101513.20
2019-03-25T22:50:08.554Z,101515.00
2019-03-25T22:52:40.066Z,101515.41
2019-03-25T22:55:11.395Z,101504.45
2019-03-25T22:57:42.768Z,101506.99
2019-03-25T23:00:17.824Z,101504.52
2019-03-25T23:02:50.832Z,101515.08
2019-03-25T23:05:22.082Z,101512.53
2019-03-25T23:07:53.396Z,101522.20
2019-03-25T23:10:24.769Z,101517.36
2019-03-25T23:12:56.144Z,101521.22
2019-03-25T23:15:27.457Z,101522.87
2019-03-25T23:17:58.827Z,101532.80
2019-03-25T23:20:30.153Z,101536.16
2019-03-25T23:23:01.542Z,101537.81
2019-03-25T23:25:32.874Z,101536.91
2019-03-25T23:28:04.287Z,101544.06
2019-03-25T23:30:35.659Z,101545.97
2019-03-25T23:33:07.071Z,101551.54
2019-03-25T23:35:38.590Z,101556.96
2019-03-25T23:38:09.913Z,101559.50
2019-03-25T23:40:41.424Z,101554.93
2019-03-25T23:43:13.970Z,101552.23
2019-03-25T23:45:45.462Z,101554.85
2019-03-25T23:48:17.838Z,101557.66
2019-03-25T23:50:50.255Z,101558.39
2019-03-25T23:53:21.801Z,101562.66
2019-03-25T23:55:53.134Z,101561.19
2019-03-25T23:58:24.486Z,101562.42
